createdAt,value
2023-02-22T00:00:28.021Z,96784.41
2023-02-22T00:01:35.632Z,96785.38
2023-02-22T00:02:37.656Z,96787.41
2023-02-22T00:03:39.243Z,96781.75
2023-02-22T00:04:41.182Z,96786.75
2023-02-22T00:05:47.029Z,96788.31
2023-02-22T00:06:49.998Z,96782.63
2023-02-22T00:07:51.578Z,96785.31
2023-02-22T00:08:53.236Z,96789.09
2023-02-22T00:09:54.804Z,96789.75
2023-02-22T00:11:01.968Z,96795.72
2023-02-22T00:12:03.721Z,96791.34
2023-02-22T00:13:07.830Z,96788.03
2023-02-22T00:14:09.348Z,96790.56
2023-02-22T00:15:13.321Z,96787.28
2023-02-22T00:16:22.246Z,96787.75
2023-02-22T00:17:23.827Z,96795.28
2023-02-22T00:18:28.052Z,96801.41
2023-02-22T00:19:31.070Z,96796.81
2023-02-22T00:20:32.802Z,96794.66
2023-02-22T00:21:34.368Z,96796.22
2023-02-22T00:22:36.306Z,96796.38
2023-02-22T00:23:43.312Z,96797.91
2023-02-22T00:24:44.843Z,96795.72
2023-02-22T00:25:48.048Z,96794.00
2023-02-22T00:26:57.491Z,96794.94
2023-02-22T00:28:00.247Z,96788.53
2023-02-22T00:29:01.775Z,96787.88
2023-02-22T00:30:05.595Z,96783.63
2023-02-22T00:31:07.961Z,96791.63
2023-02-22T00:32:09.598Z,96788.00
2023-02-22T00:33:16.130Z,96785.22
2023-02-22T00:34:17.698Z,96786.00
2023-02-22T00:35:21.766Z,96788.47
2023-02-22T00:36:23.292Z,96786.44
2023-02-22T00:37:24.939Z,96784.53
2023-02-22T00:38:26.613Z,96791.88
2023-02-22T00:39:28.172Z,96789.31
2023-02-22T00:40:32.548Z,96784.75
2023-02-22T00:41:34.499Z,96784.75
2023-02-22T00:42:36.274Z,96783.53
2023-02-22T00:43:37.816Z,96784.00
2023-02-22T00:44:39.352Z,96777.59
2023-02-22T00:45:41.246Z,96772.25
2023-02-22T00:46:42.808Z,96779.16
2023-02-22T00:47:44.665Z,96774.63
2023-02-22T00:48:46.233Z,96779.63
2023-02-22T00:49:47.769Z,96778.22
2023-02-22T00:50:49.305Z,96777.09
2023-02-22T00:51:50.945Z,96773.63
2023-02-22T00:52:53.553Z,96776.00
2023-02-22T00:53:55.125Z,96775.41
2023-02-22T00:54:57.934Z,96771.03
2023-02-22T00:55:59.463Z,96775.56
2023-02-22T00:57:01.185Z,96772.09
2023-02-22T00:58:03.302Z,96767.88
2023-02-22T00:59:04.910Z,96770.53
2023-02-22T01:00:12.695Z,96774.16
2023-02-22T01:01:14.568Z,96774.63
2023-02-22T01:02:17.256Z,96765.53
2023-02-22T01:03:21.858Z,96770.25
2023-02-22T01:04:23.587Z,96773.41
2023-02-22T01:05:27.706Z,96771.53
2023-02-22T01:06:29.442Z,96772.31
2023-02-22T01:07:30.985Z,96766.97
2023-02-22T01:08:32.664Z,96771.53
2023-02-22T01:09:35.103Z,96763.03
2023-02-22T01:10:37.838Z,96764.41
2023-02-22T01:11:39.384Z,96773.03
2023-02-22T01:12:41.506Z,96765.03
2023-02-22T01:13:45.289Z,96765.19
2023-02-22T01:14:46.911Z,96767.22
2023-02-22T01:15:48.560Z,96760.97
2023-02-22T01:16:50.999Z,96758.78
2023-02-22T01:17:53.697Z,96764.13
2023-02-22T01:18:55.418Z,96767.28
2023-02-22T01:19:57.408Z,96762.88
2023-02-22T01:21:00.945Z,96765.69
2023-02-22T01:22:02.481Z,96758.59
2023-02-22T01:23:07.072Z,96761.88
2023-02-22T01:24:08.938Z,96764.25
2023-02-22T01:25:13.070Z,96766.38
2023-02-22T01:26:14.636Z,96759.47
2023-02-22T01:27:17.051Z,96758.44
2023-02-22T01:28:18.632Z,96753.25
2023-02-22T01:29:21.208Z,96756.28
2023-02-22T01:30:26.107Z,96760.84
2023-02-22T01:31:27.810Z,96752.72
2023-02-22T01:32:29.329Z,96756.34
2023-02-22T01:33:31.811Z,96754.16
2023-02-22T01:34:33.696Z,96761.53
2023-02-22T01:35:40.854Z,96755.91
2023-02-22T01:36:42.871Z,96762.47
2023-02-22T01:37:45.241Z,96753.38
2023-02-22T01:38:46.795Z,96754.97
2023-02-22T01:39:48.324Z,96752.78
2023-02-22T01:40:51.472Z,96753.59
2023-02-22T01:41:54.062Z,96744.94
2023-02-22T01:42:59.842Z,96748.34
2023-02-22T01:44:31.681Z,96753.22
2023-02-22T01:45:33.187Z,96749.28
2023-02-22T01:46:34.720Z,96746.47
2023-02-22T01:47:36.240Z,96749.03
2023-02-22T01:48:45.409Z,96747.63
2023-02-22T01:49:50.051Z,96747.00
2023-02-22T01:50:57.427Z,96749.84
2023-02-22T01:52:02.572Z,96747.19
2023-02-22T01:53:07.886Z,96748.75
2023-02-22T01:54:15.625Z,96750.13
2023-02-22T01:55:18.292Z,96751.19
2023-02-22T01:56:22.062Z,96744.94
2023-02-22T01:57:32.285Z,96745.88
2023-02-22T01:58:36.631Z,96743.38
2023-02-22T01:59:43.230Z,96744.97
2023-02-22T02:00:44.791Z,96743.38
2023-02-22T02:01:46.705Z,96748.41
2023-02-22T02:02:54.562Z,96746.44
2023-02-22T02:03:59.833Z,96746.34
2023-02-22T02:05:01.511Z,96749.28
2023-02-22T02:06:07.098Z,96748.59
2023-02-22T02:07:13.277Z,96750.22
2023-02-22T02:08:24.537Z,96753.09
2023-02-22T02:09:53.414Z,96751.00
2023-02-22T02:10:56.690Z,96755.81
2023-02-22T02:12:03.189Z,96764.69
2023-02-22T02:13:04.980Z,96761.34
2023-02-22T02:14:09.905Z,96762.75
2023-02-22T02:15:17.293Z,96759.81
2023-02-22T02:16:19.178Z,96759.13
2023-02-22T02:17:23.353Z,96753.25
2023-02-22T02:18:27.126Z,96759.25
2023-02-22T02:19:56.819Z,96762.03
2023-02-22T02:21:24.164Z,96755.34
2023-02-22T02:22:28.804Z,96761.25
2023-02-22T02:23:51.329Z,96763.03
2023-02-22T02:25:39.693Z,96764.22
2023-02-22T02:26:50.446Z,96758.22
2023-02-22T02:28:34.233Z,96754.78
2023-02-22T02:29:55.785Z,96755.66
2023-02-22T02:31:06.489Z,96756.56
2023-02-22T02:32:13.858Z,96762.03
2023-02-22T02:33:24.130Z,96762.22
2023-02-22T02:34:50.617Z,96755.16
2023-02-22T02:35:58.728Z,96760.47
2023-02-22T02:37:12.328Z,96761.16
2023-02-22T02:38:22.795Z,96758.38
2023-02-22T02:39:31.585Z,96764.78
2023-02-22T02:40:49.325Z,96762.63
2023-02-22T02:41:52.487Z,96764.78
2023-02-22T02:43:12.626Z,96763.22
2023-02-22T02:44:27.831Z,96762.63
2023-02-22T02:45:54.534Z,96767.34
2023-02-22T02:46:59.997Z,96759.25
2023-02-22T02:48:06.316Z,96762.41
2023-02-22T02:49:13.216Z,96762.88
2023-02-22T02:50:27.271Z,96767.72
2023-02-22T02:51:34.140Z,96765.00
2023-02-22T02:52:38.620Z,96772.00
2023-02-22T02:53:45.419Z,96775.94
2023-02-22T02:54:47.627Z,96780.34
2023-02-22T02:55:49.168Z,96771.31
2023-02-22T02:56:51.264Z,96768.34
2023-02-22T02:57:52.800Z,96769.03
2023-02-22T02:58:54.860Z,96772.19
2023-02-22T02:59:56.413Z,96775.94
2023-02-22T03:01:04.425Z,96765.41
2023-02-22T03:02:50.598Z,96769.56
2023-02-22T03:04:22.936Z,96769.44
2023-02-22T03:05:57.636Z,96765.38
2023-02-22T03:07:31.740Z,96770.91
2023-02-22T03:08:38.838Z,96772.09
2023-02-22T03:10:02.929Z,96772.09
2023-02-22T03:11:15.478Z,96773.16
2023-02-22T03:12:35.062Z,96775.63
2023-02-22T03:14:11.211Z,96777.78
2023-02-22T03:15:12.781Z,96772.84
2023-02-22T03:16:33.097Z,96770.84
2023-02-22T03:18:04.156Z,96780.28
2023-02-22T03:19:34.782Z,96779.94
2023-02-22T03:20:58.012Z,96774.22
2023-02-22T03:22:11.718Z,96778.78
2023-02-22T03:23:28.870Z,96782.72
2023-02-22T03:24:37.342Z,96787.41
2023-02-22T03:25:46.801Z,96780.97
2023-02-22T03:27:09.441Z,96782.09
2023-02-22T03:28:15.681Z,96783.69
2023-02-22T03:29:21.034Z,96787.91
2023-02-22T03:30:26.665Z,96791.34
2023-02-22T03:31:33.409Z,96789.63
2023-02-22T03:32:41.356Z,96790.31
2023-02-22T03:33:46.596Z,96792.69
2023-02-22T03:35:17.047Z,96794.38
2023-02-22T03:36:24.986Z,96791.91
2023-02-22T03:37:34.123Z,96798.72
2023-02-22T03:38:38.206Z,96793.50
2023-02-22T03:39:42.042Z,96798.94
2023-02-22T03:40:46.572Z,96799.66
2023-02-22T03:41:51.466Z,96804.34
2023-02-22T03:43:01.809Z,96798.25
2023-02-22T03:44:11.804Z,96799.97
2023-02-22T03:45:17.299Z,96797.16
2023-02-22T03:46:21.866Z,96790.31
2023-02-22T03:47:33.457Z,96794.72
2023-02-22T03:48:48.798Z,96796.72
2023-02-22T03:49:57.950Z,96798.09
2023-02-22T03:51:01.040Z,96798.59
2023-02-22T03:52:04.428Z,96798.03
2023-02-22T03:53:07.499Z,96804.88
2023-02-22T03:54:16.756Z,96802.75
2023-02-22T03:55:18.524Z,96798.22
2023-02-22T03:56:25.829Z,96796.84
2023-02-22T03:57:32.791Z,96793.91
2023-02-22T03:58:37.651Z,96793.38
2023-02-22T03:59:40.221Z,96795.16
2023-02-22T04:00:44.517Z,96800.28
2023-02-22T04:01:46.186Z,96799.53
2023-02-22T04:02:47.738Z,96799.94
2023-02-22T04:03:49.480Z,96803.69
2023-02-22T04:04:51.143Z,96798.38
2023-02-22T04:05:52.752Z,96799.34
2023-02-22T04:06:55.119Z,96802.34
2023-02-22T04:07:57.384Z,96800.59
2023-02-22T04:08:59.205Z,96801.00
2023-02-22T04:10:02.809Z,96801.38
2023-02-22T04:11:04.642Z,96810.84
2023-02-22T04:12:07.746Z,96808.09
2023-02-22T04:13:10.679Z,96806.50
2023-02-22T04:14:13.314Z,96813.19
2023-02-22T04:16:19.653Z,96817.44
2023-02-22T04:17:21.238Z,96813.28
2023-02-22T04:18:22.777Z,96812.34
2023-02-22T04:19:24.418Z,96811.13
2023-02-22T04:20:26.278Z,96808.88
2023-02-22T04:21:27.868Z,96815.16
2023-02-22T04:22:29.578Z,96812.72
2023-02-22T04:23:31.131Z,96813.47
2023-02-22T04:24:32.757Z,96814.59
2023-02-22T04:25:34.606Z,96814.09
2023-02-22T04:26:36.177Z,96815.66
2023-02-22T04:27:37.742Z,96819.28
2023-02-22T04:28:39.299Z,96821.66
2023-02-22T04:29:41.120Z,96816.53
2023-02-22T04:30:44.402Z,96826.59
2023-02-22T04:31:45.981Z,96823.31
2023-02-22T04:32:47.583Z,96822.25
2023-02-22T04:33:49.190Z,96828.13
2023-02-22T04:34:50.701Z,96820.88
2023-02-22T04:35:52.321Z,96831.50
2023-02-22T04:36:53.857Z,96816.25
2023-02-22T04:37:55.594Z,96823.97
2023-02-22T04:38:58.265Z,96821.03
2023-02-22T04:39:59.782Z,96816.94
2023-02-22T04:41:01.338Z,96816.13
2023-02-22T04:42:02.928Z,96817.91
2023-02-22T04:43:04.487Z,96817.03
2023-02-22T04:44:06.079Z,96821.66
2023-02-22T04:45:09.074Z,96818.31
2023-02-22T04:46:10.885Z,96824.13
2023-02-22T04:47:12.481Z,96824.34
2023-02-22T04:48:14.127Z,96826.88
2023-02-22T04:49:15.911Z,96817.75
2023-02-22T04:50:17.564Z,96825.63
2023-02-22T04:51:20.156Z,96824.72
2023-02-22T04:52:21.922Z,96824.91
2023-02-22T04:53:23.625Z,96816.34
2023-02-22T04:54:25.131Z,96822.25
2023-02-22T04:55:28.137Z,96828.75
2023-02-22T04:56:29.708Z,96827.69
2023-02-22T04:57:31.371Z,96822.88
2023-02-22T04:58:32.919Z,96824.41
2023-02-22T04:59:34.428Z,96826.59
2023-02-22T05:00:35.990Z,96824.41
2023-02-22T05:01:38.289Z,96825.72
2023-02-22T05:02:40.173Z,96825.41
2023-02-22T05:03:42.591Z,96829.16
2023-02-22T05:04:45.108Z,96825.41
2023-02-22T05:05:46.775Z,96826.00
2023-02-22T05:06:48.644Z,96821.38
2023-02-22T05:07:50.472Z,96826.97
2023-02-22T05:08:53.270Z,96830.94
2023-02-22T05:09:54.806Z,96830.84
2023-02-22T05:10:56.348Z,96829.34
2023-02-22T05:11:57.942Z,96831.91
2023-02-22T05:12:59.596Z,96830.53
2023-02-22T05:14:01.240Z,96828.06
2023-02-22T05:15:07.157Z,96827.16
2023-02-22T05:16:08.711Z,96826.59
2023-02-22T05:17:10.332Z,96834.56
2023-02-22T05:18:11.886Z,96831.91
2023-02-22T05:19:13.423Z,96829.72
2023-02-22T05:20:23.588Z,96834.47
2023-02-22T05:21:25.684Z,96833.06
2023-02-22T05:22:27.265Z,96839.34
2023-02-22T05:23:28.928Z,96842.22
2023-02-22T05:24:30.843Z,96838.16
2023-02-22T05:25:33.727Z,96832.66
2023-02-22T05:26:35.287Z,96837.00
2023-02-22T05:27:36.846Z,96837.59
2023-02-22T05:28:38.513Z,96834.25
2023-02-22T05:29:40.125Z,96840.97
2023-02-22T05:30:41.938Z,96844.97
2023-02-22T05:31:43.706Z,96844.50
2023-02-22T05:32:47.175Z,96847.63
2023-02-22T05:33:48.777Z,96845.25
2023-02-22T05:34:50.340Z,96847.19
2023-02-22T05:35:51.919Z,96846.22
2023-02-22T05:36:53.478Z,96840.91
2023-02-22T05:37:55.968Z,96841.47
2023-02-22T05:38:57.483Z,96842.84
2023-02-22T05:39:59.540Z,96839.88
2023-02-22T05:41:01.357Z,96843.06
2023-02-22T05:42:02.997Z,96853.66
2023-02-22T05:43:04.585Z,96842.44
2023-02-22T05:44:06.337Z,96845.41
2023-02-22T05:45:09.283Z,96849.50
2023-02-22T05:46:11.199Z,96850.31
2023-02-22T05:47:13.102Z,96848.94
2023-02-22T05:48:14.668Z,96849.34
2023-02-22T05:49:16.241Z,96848.19
2023-02-22T05:50:20.034Z,96848.69
2023-02-22T05:51:21.716Z,96853.06
2023-02-22T05:52:23.354Z,96850.50
2023-02-22T05:53:25.267Z,96847.94
2023-02-22T05:54:26.918Z,96849.22
2023-02-22T05:55:28.505Z,96850.75
2023-02-22T05:56:30.663Z,96854.19
2023-02-22T05:57:32.441Z,96859.22
2023-02-22T05:58:33.967Z,96869.56
2023-02-22T05:59:35.536Z,96861.88
2023-02-22T06:00:37.888Z,96862.56
2023-02-22T06:01:39.458Z,96864.19
2023-02-22T06:02:41.003Z,96867.34
2023-02-22T06:03:42.639Z,96866.19
2023-02-22T06:04:45.327Z,96862.66
2023-02-22T06:05:47.013Z,96870.56
2023-02-22T06:06:48.585Z,96866.44
2023-02-22T06:07:51.083Z,96873.22
2023-02-22T06:08:52.628Z,96874.44
2023-02-22T06:09:54.242Z,96875.16
2023-02-22T06:10:55.787Z,96875.63
2023-02-22T06:11:57.403Z,96877.72
2023-02-22T06:13:00.293Z,96879.78
2023-02-22T06:14:01.832Z,96870.13
2023-02-22T06:15:03.569Z,96870.84
2023-02-22T06:16:05.835Z,96874.00
2023-02-22T06:17:07.517Z,96874.78
2023-02-22T06:18:09.150Z,96869.59
2023-02-22T06:19:10.753Z,96871.25
2023-02-22T06:20:15.827Z,96874.59
2023-02-22T06:21:17.985Z,96879.03
2023-02-22T06:22:20.162Z,96877.06
2023-02-22T06:23:21.698Z,96879.34
2023-02-22T06:24:23.953Z,96878.97
2023-02-22T06:25:31.617Z,96880.91
2023-02-22T06:26:33.194Z,96875.19
2023-02-22T06:27:35.175Z,96883.53
2023-02-22T06:28:36.803Z,96880.00
2023-02-22T06:29:38.453Z,96880.38
2023-02-22T06:30:43.032Z,96882.66
2023-02-22T06:31:44.772Z,96889.44
2023-02-22T06:32:46.337Z,96896.19
2023-02-22T06:33:47.896Z,96881.72
2023-02-22T06:34:49.424Z,96884.25
2023-02-22T06:35:50.991Z,96882.56
2023-02-22T06:36:52.545Z,96882.56
2023-02-22T06:37:54.123Z,96887.88
2023-02-22T06:38:58.697Z,96881.41
2023-02-22T06:40:04.909Z,96882.78
2023-02-22T06:41:08.858Z,96889.16
2023-02-22T06:42:10.457Z,96888.56
2023-02-22T06:43:12.234Z,96886.81
2023-02-22T06:44:15.368Z,96890.66
2023-02-22T06:45:18.093Z,96881.81
2023-02-22T06:46:21.179Z,96887.63
2023-02-22T06:47:22.799Z,96886.13
2023-02-22T06:48:24.354Z,96880.69
2023-02-22T06:49:27.550Z,96880.09
2023-02-22T06:50:30.642Z,96880.22
2023-02-22T06:51:37.201Z,96876.19
2023-02-22T06:52:42.943Z,96880.53
2023-02-22T06:53:45.222Z,96883.28
2023-02-22T06:54:47.085Z,96884.66
2023-02-22T06:55:48.842Z,96889.56
2023-02-22T06:56:50.549Z,96890.47
2023-02-22T06:57:52.784Z,96884.34
2023-02-22T06:58:54.423Z,96885.94
2023-02-22T06:59:56.266Z,96885.03
2023-02-22T07:00:57.970Z,96888.75
2023-02-22T07:02:04.330Z,96885.34
2023-02-22T07:03:06.597Z,96883.28
2023-02-22T07:04:08.813Z,96882.78
2023-02-22T07:05:13.318Z,96880.44
2023-02-22T07:06:15.330Z,96881.47
2023-02-22T07:07:16.859Z,96883.34
2023-02-22T07:08:18.655Z,96879.22
2023-02-22T07:09:20.450Z,96881.91
2023-02-22T07:10:26.556Z,96876.56
2023-02-22T07:11:28.261Z,96877.94
2023-02-22T07:12:29.901Z,96877.75
2023-02-22T07:13:31.473Z,96874.69
2023-02-22T07:14:33.072Z,96874.88
2023-02-22T07:15:35.721Z,96875.88
2023-02-22T07:16:37.337Z,96871.50
2023-02-22T07:17:41.256Z,96870.28
2023-02-22T07:18:42.829Z,96859.66
2023-02-22T07:19:47.572Z,96866.56
2023-02-22T07:20:49.206Z,96863.75
2023-02-22T07:21:59.328Z,96866.28
2023-02-22T07:23:01.631Z,96860.31
2023-02-22T07:24:05.474Z,96863.16
2023-02-22T07:25:11.821Z,96862.19
2023-02-22T07:26:14.972Z,96858.56
2023-02-22T07:27:17.744Z,96859.34
2023-02-22T07:28:19.404Z,96855.09
2023-02-22T07:29:22.545Z,96857.00
2023-02-22T07:30:31.105Z,96852.13
2023-02-22T07:31:37.119Z,96854.50
2023-02-22T07:32:38.755Z,96859.53
2023-02-22T07:33:40.547Z,96847.56
2023-02-22T07:34:43.063Z,96856.06
2023-02-22T07:35:47.485Z,96853.06
2023-02-22T07:36:49.127Z,96856.22
2023-02-22T07:37:51.000Z,96848.63
2023-02-22T07:38:52.533Z,96851.69
2023-02-22T07:39:54.184Z,96850.72
2023-02-22T07:40:57.896Z,96843.63
2023-02-22T07:41:59.451Z,96842.69
2023-02-22T07:43:21.330Z,96849.72
2023-02-22T07:44:22.895Z,96856.88
2023-02-22T07:45:27.615Z,96845.56
2023-02-22T07:46:29.858Z,96841.19
2023-02-22T07:47:31.400Z,96843.25
2023-02-22T07:48:32.989Z,96839.44
2023-02-22T07:49:34.553Z,96846.94
2023-02-22T07:50:36.529Z,96851.59
2023-02-22T07:51:38.051Z,96843.16
2023-02-22T07:52:39.590Z,96852.91
2023-02-22T07:53:41.210Z,96840.47
2023-02-22T07:54:42.769Z,96846.53
2023-02-22T07:55:44.753Z,96837.03
2023-02-22T07:56:48.571Z,96840.22
2023-02-22T07:57:52.155Z,96835.38
2023-02-22T07:58:53.758Z,96835.56
2023-02-22T07:59:55.331Z,96846.16
2023-02-22T08:00:57.193Z,96838.59
2023-02-22T08:01:58.832Z,96833.28
2023-02-22T08:03:02.467Z,96839.63
2023-02-22T08:04:04.206Z,96835.03
2023-02-22T08:05:06.861Z,96831.13
2023-02-22T08:06:08.586Z,96831.53
2023-02-22T08:07:10.144Z,96827.84
2023-02-22T08:08:12.078Z,96831.78
2023-02-22T08:09:13.707Z,96829.69
2023-02-22T08:10:17.682Z,96825.06
2023-02-22T08:11:19.535Z,96824.06
2023-02-22T08:12:21.231Z,96820.41
2023-02-22T08:13:23.341Z,96819.53
2023-02-22T08:14:25.113Z,96817.72
2023-02-22T08:15:32.260Z,96818.75
2023-02-22T08:16:33.819Z,96814.59
2023-02-22T08:17:35.371Z,96816.50
2023-02-22T08:18:38.413Z,96815.94
2023-02-22T08:19:40.096Z,96815.34
2023-02-22T08:20:43.595Z,96816.59
2023-02-22T08:21:45.162Z,96813.94
2023-02-22T08:22:47.777Z,96813.94
2023-02-22T08:23:54.367Z,96816.28
2023-02-22T08:24:56.011Z,96816.38
2023-02-22T08:25:57.782Z,96810.31
2023-02-22T08:26:59.332Z,96815.22
2023-02-22T08:28:04.608Z,96807.72
2023-02-22T08:29:06.510Z,96804.69
2023-02-22T08:30:13.599Z,96809.66
2023-02-22T08:31:15.344Z,96803.63
2023-02-22T08:32:17.243Z,96806.50
2023-02-22T08:33:19.830Z,96804.84
2023-02-22T08:34:21.649Z,96810.13
2023-02-22T08:35:23.355Z,96806.56
2023-02-22T08:36:24.914Z,96801.38
2023-02-22T08:37:26.486Z,96798.00
2023-02-22T08:38:30.833Z,96798.00
2023-02-22T08:39:32.365Z,96802.09
2023-02-22T08:40:36.983Z,96794.59
2023-02-22T08:41:38.515Z,96793.59
2023-02-22T08:42:40.263Z,96792.66
2023-02-22T08:43:41.782Z,96792.84
2023-02-22T08:44:43.345Z,96788.59
2023-02-22T08:45:45.531Z,96790.34
2023-02-22T08:46:47.176Z,96787.00
2023-02-22T08:47:49.020Z,96789.47
2023-02-22T08:48:52.151Z,96779.81
2023-02-22T08:49:53.991Z,96787.94
2023-02-22T08:50:56.287Z,96786.13
2023-02-22T08:51:57.908Z,96781.91
2023-02-22T08:53:01.252Z,96783.06
2023-02-22T08:54:03.944Z,96781.69
2023-02-22T08:55:06.009Z,96777.44
2023-02-22T08:56:07.540Z,96776.75
2023-02-22T08:57:09.070Z,96773.44
2023-02-22T08:58:10.788Z,96772.31
2023-02-22T08:59:12.315Z,96776.47
2023-02-22T09:00:15.863Z,96780.81
2023-02-22T09:01:27.958Z,96772.63
2023-02-22T09:02:33.139Z,96774.59
2023-02-22T09:03:34.745Z,96768.63
2023-02-22T09:04:36.551Z,96769.16
2023-02-22T09:05:38.184Z,96768.44
2023-02-22T09:06:48.305Z,96768.28
2023-02-22T09:07:49.887Z,96771.06
2023-02-22T09:08:51.454Z,96771.41
2023-02-22T09:09:53.236Z,96776.94
2023-02-22T09:10:54.833Z,96766.03
2023-02-22T09:11:56.384Z,96766.47
2023-02-22T09:13:00.883Z,96764.56
2023-02-22T09:14:02.757Z,96761.75
2023-02-22T09:15:04.474Z,96762.41
2023-02-22T09:16:06.630Z,96767.16
2023-02-22T09:17:08.335Z,96755.72
2023-02-22T09:18:12.488Z,96755.97
2023-02-22T09:19:14.074Z,96751.59
2023-02-22T09:20:17.945Z,96754.00
2023-02-22T09:21:19.560Z,96751.19
2023-02-22T09:22:21.104Z,96752.63
2023-02-22T09:23:22.751Z,96751.84
2023-02-22T09:24:24.802Z,96756.00
2023-02-22T09:25:27.193Z,96758.13
2023-02-22T09:26:28.765Z,96748.28
2023-02-22T09:27:30.345Z,96750.63
2023-02-22T09:28:31.895Z,96746.56
2023-02-22T09:29:33.452Z,96747.19
2023-02-22T09:30:36.888Z,96750.91
2023-02-22T09:31:40.455Z,96749.34
2023-02-22T09:32:42.262Z,96744.72
2023-02-22T09:33:47.297Z,96738.91
2023-02-22T09:34:49.037Z,96742.50
2023-02-22T09:35:50.613Z,96745.81
2023-02-22T09:36:52.170Z,96739.94
2023-02-22T09:37:58.449Z,96736.88
2023-02-22T09:39:00.080Z,96731.59
2023-02-22T09:40:01.721Z,96730.75
2023-02-22T09:41:53.275Z,96733.47
2023-02-22T09:43:01.019Z,96727.72
2023-02-22T09:44:24.231Z,96726.78
2023-02-22T09:45:36.947Z,96734.00
2023-02-22T09:46:42.162Z,96731.47
2023-02-22T09:47:49.363Z,96721.59
2023-02-22T09:49:13.927Z,96722.38
2023-02-22T09:50:38.828Z,96717.06
2023-02-22T09:51:49.379Z,96723.47
2023-02-22T09:53:00.491Z,96717.91
2023-02-22T09:54:06.464Z,96718.28
2023-02-22T09:55:20.596Z,96711.78
2023-02-22T09:56:24.086Z,96706.50
2023-02-22T09:57:35.228Z,96712.19
2023-02-22T09:58:43.162Z,96709.88
2023-02-22T10:00:01.857Z,96706.31
2023-02-22T10:01:23.098Z,96700.56
2023-02-22T10:02:34.727Z,96700.44
2023-02-22T10:03:49.081Z,96700.91
2023-02-22T10:05:20.105Z,96692.91
2023-02-22T10:06:24.627Z,96700.16
2023-02-22T10:07:43.280Z,96691.06
2023-02-22T10:08:45.380Z,96688.75
2023-02-22T10:09:49.586Z,96688.06
2023-02-22T10:11:05.835Z,96685.22
2023-02-22T10:12:31.182Z,96686.00
2023-02-22T10:13:48.696Z,96683.91
2023-02-22T10:15:29.232Z,96673.69
2023-02-22T10:16:40.551Z,96675.78
2023-02-22T10:18:17.487Z,96660.84
2023-02-22T10:19:47.440Z,96663.91
2023-02-22T10:20:57.425Z,96660.84
2023-02-22T10:22:14.059Z,96657.59
2023-02-22T10:23:15.628Z,96655.16
2023-02-22T10:24:31.104Z,96649.59
2023-02-22T10:25:37.800Z,96645.44
2023-02-22T10:26:44.597Z,96650.94
2023-02-22T10:27:54.379Z,96644.91
2023-02-22T10:29:02.025Z,96638.06
2023-02-22T10:30:24.655Z,96644.75
2023-02-22T10:31:31.701Z,96640.72
2023-02-22T10:32:48.005Z,96633.78
2023-02-22T10:33:58.645Z,96632.44
2023-02-22T10:35:05.493Z,96624.81
2023-02-22T10:36:18.773Z,96623.34
2023-02-22T10:37:34.434Z,96619.84
2023-02-22T10:38:36.353Z,96618.50
2023-02-22T10:39:39.775Z,96621.31
2023-02-22T10:40:46.334Z,96616.28
2023-02-22T10:41:55.595Z,96613.59
2023-02-22T10:42:58.810Z,96606.88
2023-02-22T10:44:03.051Z,96613.91
2023-02-22T10:45:05.778Z,96601.66
2023-02-22T10:46:12.413Z,96603.22
2023-02-22T10:47:17.947Z,96600.09
2023-02-22T10:48:21.266Z,96601.97
2023-02-22T10:49:24.676Z,96592.38
2023-02-22T10:50:31.209Z,96596.56
2023-02-22T10:51:33.086Z,96593.88
2023-02-22T10:52:35.045Z,96595.13
2023-02-22T10:53:41.270Z,96595.19
2023-02-22T10:54:46.598Z,96581.16
2023-02-22T10:56:07.758Z,96590.03
2023-02-22T10:57:09.724Z,96584.19
2023-02-22T10:58:12.162Z,96581.22
2023-02-22T10:59:27.386Z,96572.50
2023-02-22T11:00:37.891Z,96572.63
2023-02-22T11:01:40.990Z,96570.03
2023-02-22T11:03:00.212Z,96570.13
2023-02-22T11:04:23.622Z,96561.97
2023-02-22T11:05:36.835Z,96557.34
2023-02-22T11:06:40.709Z,96561.56
2023-02-22T11:07:42.730Z,96563.59
2023-02-22T11:08:46.462Z,96552.13
2023-02-22T11:10:00.005Z,96550.75
2023-02-22T11:11:04.790Z,96558.84
2023-02-22T11:12:11.239Z,96551.53
2023-02-22T11:13:26.000Z,96549.28
2023-02-22T11:14:30.086Z,96550.47
2023-02-22T11:15:31.736Z,96547.41
2023-02-22T11:16:38.205Z,96545.50
2023-02-22T11:17:41.135Z,96545.56
2023-02-22T11:18:42.771Z,96535.53
2023-02-22T11:19:49.522Z,96543.28
2023-02-22T11:20:59.974Z,96530.94
2023-02-22T11:22:25.475Z,96535.75
2023-02-22T11:23:27.174Z,96536.88
2023-02-22T11:24:37.325Z,96531.88
2023-02-22T11:25:42.955Z,96529.25
2023-02-22T11:26:50.231Z,96527.75
2023-02-22T11:27:52.913Z,96525.50
2023-02-22T11:28:56.294Z,96522.38
2023-02-22T11:30:21.953Z,96519.66
2023-02-22T11:31:27.337Z,96523.19
2023-02-22T11:32:29.232Z,96513.16
2023-02-22T11:33:31.334Z,96513.09
2023-02-22T11:34:39.389Z,96511.97
2023-02-22T11:35:54.760Z,96506.63
2023-02-22T11:36:56.645Z,96509.75
2023-02-22T11:38:18.377Z,96502.38
2023-02-22T11:39:27.543Z,96515.47
2023-02-22T11:40:29.690Z,96500.06
2023-02-22T11:41:37.273Z,96504.75
2023-02-22T11:42:39.112Z,96500.13
2023-02-22T11:43:41.972Z,96498.56
2023-02-22T11:44:45.010Z,96490.50
2023-02-22T11:46:21.836Z,96491.69
2023-02-22T11:47:24.650Z,96489.38
2023-02-22T11:48:28.598Z,96490.53
2023-02-22T11:49:38.213Z,96494.81
2023-02-22T11:50:51.669Z,96490.16
2023-02-22T11:52:30.106Z,96487.81
2023-02-22T11:53:34.428Z,96489.41
2023-02-22T11:54:35.962Z,96490.56
2023-02-22T11:56:12.117Z,96489.41
2023-02-22T11:57:16.271Z,96478.56
2023-02-22T11:58:54.156Z,96477.78
2023-02-22T12:00:24.899Z,96479.28
2023-02-22T12:01:46.523Z,96474.28
2023-02-22T12:03:15.968Z,96471.59
2023-02-22T12:04:47.622Z,96471.59
2023-02-22T12:06:08.216Z,96469.31
2023-02-22T12:07:48.897Z,96469.31
2023-02-22T12:09:02.242Z,96458.88
2023-02-22T12:10:27.200Z,96462.34
2023-02-22T12:11:52.949Z,96455.38
2023-02-22T12:13:28.483Z,96453.06
2023-02-22T12:14:52.685Z,96450.75
2023-02-22T12:15:56.360Z,96442.25
2023-02-22T12:17:23.456Z,96446.13
2023-02-22T12:19:01.615Z,96443.03
2023-02-22T12:20:24.766Z,96439.22
2023-02-22T12:21:29.853Z,96437.63
2023-02-22T12:22:34.827Z,96440.75
2023-02-22T12:23:45.664Z,96438.44
2023-02-22T12:24:58.033Z,96432.22
2023-02-22T12:26:13.427Z,96431.44
2023-02-22T12:27:27.340Z,96426.41
2023-02-22T12:28:36.124Z,96426.78
2023-02-22T12:29:47.229Z,96427.56
2023-02-22T12:31:00.962Z,96423.69
2023-02-22T12:32:11.149Z,96426.00
2023-02-22T12:33:28.352Z,96416.31
2023-02-22T12:34:40.913Z,96419.03
2023-02-22T12:35:53.573Z,96410.50
2023-02-22T12:37:12.026Z,96412.03
2023-02-22T12:38:24.135Z,96407.38
2023-02-22T12:39:52.645Z,96416.28
2023-02-22T12:41:13.972Z,96408.91
2023-02-22T12:42:20.847Z,96405.78
2023-02-22T12:43:32.432Z,96404.97
2023-02-22T12:44:39.023Z,96404.56
2023-02-22T12:45:49.338Z,96405.34
2023-02-22T12:46:56.785Z,96407.28
2023-02-22T12:48:18.310Z,96409.63
2023-02-22T12:49:38.765Z,96404.97
2023-02-22T12:50:43.161Z,96407.31
2023-02-22T12:51:56.444Z,96410.41
2023-02-22T12:53:06.823Z,96400.63
2023-02-22T12:54:33.730Z,96401.81
2023-02-22T12:55:47.940Z,96400.25
2023-02-22T12:57:22.116Z,96406.06
2023-02-22T12:58:31.249Z,96396.34
2023-02-22T12:59:41.702Z,96390.19
2023-02-22T13:00:51.009Z,96388.63